Terminal Aerodrome Forecast
Issued by NWS

Home | Current Version | Previous Version | Text Only | Print | Product List | Glossary On
Versions: 1 2 3 4 5 6 7 8 9 10 11 12 13 14
000
FTUS42 KTBW 202321
TAFRSW
TAF
KRSW 202321Z 2100/2124 17004KT P6SM VCTS SCT040CB BKN090
     FM210300 16004KT P6SM BKN090
     FM210500 VRB03KT P6SM SCT080
     FM211200 VRB03KT P6SM BKN100
     FM211800 23007KT P6SM VCTS BKN035CB=

USA.gov is the U.S. government's official web portal to all federal, state and local government web resources and services.